sensor_id;sensor_type;location;lat;lon;timestamp;P1;durP1;ratioP1;P2;durP2;ratioP2
40511;SDS011;26213;52.446;20.706;2023-04-29T00:01:52;44.33;;;20.92;;
40511;SDS011;26213;52.446;20.706;2023-04-29T00:04:18;35.35;;;17.23;;
40511;SDS011;26213;52.446;20.706;2023-04-29T00:06:44;35.25;;;18.38;;
40511;SDS011;26213;52.446;20.706;2023-04-29T00:09:09;31.20;;;16.95;;
40511;SDS011;26213;52.446;20.706;2023-04-29T00:11:34;31.60;;;16.40;;
40511;SDS011;26213;52.446;20.706;2023-04-29T00:14:00;27.75;;;14.25;;
40511;SDS011;26213;52.446;20.706;2023-04-29T00:16:25;28.45;;;14.13;;
40511;SDS011;26213;52.446;20.706;2023-04-29T00:18:51;30.08;;;16.30;;
40511;SDS011;26213;52.446;20.706;2023-04-29T00:21:17;28.10;;;14.85;;
40511;SDS011;26213;52.446;20.706;2023-04-29T00:23:42;23.67;;;14.93;;
40511;SDS011;26213;52.446;20.706;2023-04-29T00:26:07;21.50;;;13.90;;
40511;SDS011;26213;52.446;20.706;2023-04-29T00:28:33;26.50;;;13.88;;
40511;SDS011;26213;52.446;20.706;2023-04-29T00:30:58;21.27;;;12.38;;
40511;SDS011;26213;52.446;20.706;2023-04-29T00:33:23;20.70;;;13.40;;
40511;SDS011;26213;52.446;20.706;2023-04-29T00:35:49;26.92;;;14.05;;
40511;SDS011;26213;52.446;20.706;2023-04-29T00:38:15;23.95;;;14.50;;
40511;SDS011;26213;52.446;20.706;2023-04-29T00:40:41;23.42;;;13.25;;
40511;SDS011;26213;52.446;20.706;2023-04-29T00:43:07;25.75;;;14.65;;
40511;SDS011;26213;52.446;20.706;2023-04-29T00:45:33;25.48;;;13.43;;
40511;SDS011;26213;52.446;20.706;2023-04-29T00:47:58;22.85;;;13.95;;
40511;SDS011;26213;52.446;20.706;2023-04-29T00:50:23;23.13;;;12.60;;
40511;SDS011;26213;52.446;20.706;2023-04-29T00:52:49;18.48;;;12.27;;
40511;SDS011;26213;52.446;20.706;2023-04-29T00:55:15;23.35;;;13.00;;
40511;SDS011;26213;52.446;20.706;2023-04-29T00:57:42;25.10;;;14.65;;
40511;SDS011;26213;52.446;20.706;2023-04-29T01:00:07;26.75;;;13.68;;
40511;SDS011;26213;52.446;20.706;2023-04-29T01:02:37;24.35;;;14.60;;
40511;SDS011;26213;52.446;20.706;2023-04-29T01:05:03;24.17;;;13.88;;
40511;SDS011;26213;52.446;20.706;2023-04-29T01:07:30;27.42;;;14.30;;
40511;SDS011;26213;52.446;20.706;2023-04-29T01:10:09;22.23;;;13.15;;
40511;SDS011;26213;52.446;20.706;2023-04-29T01:15:21;25.50;;;15.18;;
40511;SDS011;26213;52.446;20.706;2023-04-29T01:18:02;26.92;;;14.18;;
40511;SDS011;26213;52.446;20.706;2023-04-29T01:20:30;26.60;;;15.00;;
40511;SDS011;26213;52.446;20.706;2023-04-29T01:22:56;27.27;;;15.23;;
40511;SDS011;26213;52.446;20.706;2023-04-29T01:25:22;25.63;;;13.18;;
40511;SDS011;26213;52.446;20.706;2023-04-29T01:30:21;20.48;;;13.38;;
40511;SDS011;26213;52.446;20.706;2023-04-29T01:32:52;23.33;;;13.55;;
40511;SDS011;26213;52.446;20.706;2023-04-29T01:35:49;21.92;;;12.82;;
40511;SDS011;26213;52.446;20.706;2023-04-29T01:38:59;19.73;;;11.98;;
40511;SDS011;26213;52.446;20.706;2023-04-29T01:41:34;22.35;;;12.90;;
40511;SDS011;26213;52.446;20.706;2023-04-29T01:44:12;24.55;;;12.98;;
40511;SDS011;26213;52.446;20.706;2023-04-29T01:46:40;20.38;;;11.82;;
40511;SDS011;26213;52.446;20.706;2023-04-29T01:49:08;26.90;;;13.52;;
40511;SDS011;26213;52.446;20.706;2023-04-29T01:51:33;20.10;;;14.23;;
40511;SDS011;26213;52.446;20.706;2023-04-29T01:53:58;18.88;;;11.63;;
40511;SDS011;26213;52.446;20.706;2023-04-29T01:56:24;19.40;;;12.32;;
40511;SDS011;26213;52.446;20.706;2023-04-29T01:58:49;25.38;;;12.98;;
40511;SDS011;26213;52.446;20.706;2023-04-29T02:01:15;23.45;;;14.30;;
40511;SDS011;26213;52.446;20.706;2023-04-29T02:03:40;18.95;;;11.98;;
40511;SDS011;26213;52.446;20.706;2023-04-29T02:06:05;20.65;;;12.20;;
40511;SDS011;26213;52.446;20.706;2023-04-29T02:08:31;20.55;;;12.15;;
40511;SDS011;26213;52.446;20.706;2023-04-29T02:10:57;23.83;;;11.77;;
40511;SDS011;26213;52.446;20.706;2023-04-29T02:13:24;19.35;;;12.60;;
40511;SDS011;26213;52.446;20.706;2023-04-29T02:15:49;22.08;;;11.68;;
40511;SDS011;26213;52.446;20.706;2023-04-29T02:18:15;20.30;;;11.77;;
40511;SDS011;26213;52.446;20.706;2023-04-29T02:20:40;21.48;;;11.10;;
40511;SDS011;26213;52.446;20.706;2023-04-29T02:23:06;21.33;;;12.93;;
40511;SDS011;26213;52.446;20.706;2023-04-29T02:25:31;18.40;;;12.02;;
40511;SDS011;26213;52.446;20.706;2023-04-29T02:27:57;21.08;;;13.18;;
40511;SDS011;26213;52.446;20.706;2023-04-29T02:30:22;19.67;;;11.63;;
40511;SDS011;26213;52.446;20.706;2023-04-29T02:32:48;22.08;;;11.88;;
40511;SDS011;26213;52.446;20.706;2023-04-29T02:35:13;23.45;;;12.70;;
40511;SDS011;26213;52.446;20.706;2023-04-29T02:37:39;24.73;;;12.20;;
40511;SDS011;26213;52.446;20.706;2023-04-29T02:40:04;21.92;;;12.43;;
40511;SDS011;26213;52.446;20.706;2023-04-29T02:42:31;21.27;;;12.70;;
40511;SDS011;26213;52.446;20.706;2023-04-29T02:44:56;20.70;;;11.77;;
40511;SDS011;26213;52.446;20.706;2023-04-29T02:47:22;15.85;;;12.10;;
40511;SDS011;26213;52.446;20.706;2023-04-29T02:49:47;20.02;;;11.98;;
40511;SDS011;26213;52.446;20.706;2023-04-29T02:52:13;22.20;;;12.45;;
40511;SDS011;26213;52.446;20.706;2023-04-29T02:54:38;19.88;;;13.45;;
40511;SDS011;26213;52.446;20.706;2023-04-29T02:57:04;21.70;;;12.63;;
40511;SDS011;26213;52.446;20.706;2023-04-29T02:59:29;16.67;;;12.57;;
40511;SDS011;26213;52.446;20.706;2023-04-29T03:01:55;24.27;;;13.05;;
40511;SDS011;26213;52.446;20.706;2023-04-29T03:04:21;15.57;;;10.82;;
40511;SDS011;26213;52.446;20.706;2023-04-29T03:06:47;20.98;;;11.88;;
40511;SDS011;26213;52.446;20.706;2023-04-29T03:09:12;21.85;;;11.85;;
40511;SDS011;26213;52.446;20.706;2023-04-29T03:11:38;20.90;;;13.07;;
40511;SDS011;26213;52.446;20.706;2023-04-29T03:14:03;20.50;;;11.93;;
40511;SDS011;26213;52.446;20.706;2023-04-29T03:16:29;19.00;;;11.27;;
40511;SDS011;26213;52.446;20.706;2023-04-29T03:18:55;19.17;;;12.32;;
40511;SDS011;26213;52.446;20.706;2023-04-29T03:21:22;20.88;;;12.38;;
40511;SDS011;26213;52.446;20.706;2023-04-29T03:23:49;20.75;;;11.90;;
40511;SDS011;26213;52.446;20.706;2023-04-29T03:26:14;19.02;;;12.48;;
40511;SDS011;26213;52.446;20.706;2023-04-29T03:28:40;18.67;;;11.13;;
40511;SDS011;26213;52.446;20.706;2023-04-29T03:31:05;23.38;;;11.93;;
40511;SDS011;26213;52.446;20.706;2023-04-29T03:33:31;21.52;;;12.68;;
40511;SDS011;26213;52.446;20.706;2023-04-29T03:35:56;19.10;;;11.25;;
40511;SDS011;26213;52.446;20.706;2023-04-29T03:38:22;20.42;;;11.68;;
40511;SDS011;26213;52.446;20.706;2023-04-29T03:40:48;17.15;;;10.52;;
40511;SDS011;26213;52.446;20.706;2023-04-29T03:43:14;19.67;;;11.30;;
40511;SDS011;26213;52.446;20.706;2023-04-29T03:45:39;17.10;;;10.57;;
40511;SDS011;26213;52.446;20.706;2023-04-29T03:48:05;20.15;;;11.00;;
40511;SDS011;26213;52.446;20.706;2023-04-29T03:50:30;17.73;;;10.90;;
40511;SDS011;26213;52.446;20.706;2023-04-29T03:52:56;20.23;;;12.27;;
40511;SDS011;26213;52.446;20.706;2023-04-29T03:55:22;17.67;;;11.75;;
40511;SDS011;26213;52.446;20.706;2023-04-29T03:57:47;24.98;;;11.52;;
40511;SDS011;26213;52.446;20.706;2023-04-29T04:00:13;18.30;;;10.68;;
40511;SDS011;26213;52.446;20.706;2023-04-29T04:02:39;16.60;;;10.10;;
40511;SDS011;26213;52.446;20.706;2023-04-29T04:05:04;20.25;;;11.45;;
40511;SDS011;26213;52.446;20.706;2023-04-29T04:07:30;22.92;;;11.80;;
40511;SDS011;26213;52.446;20.706;2023-04-29T04:09:55;18.52;;;11.00;;
40511;SDS011;26213;52.446;20.706;2023-04-29T04:12:20;19.48;;;12.05;;
40511;SDS011;26213;52.446;20.706;2023-04-29T04:14:46;16.80;;;11.32;;
40511;SDS011;26213;52.446;20.706;2023-04-29T04:17:12;17.10;;;10.93;;
40511;SDS011;26213;52.446;20.706;2023-04-29T04:19:37;22.52;;;11.52;;
40511;SDS011;26213;52.446;20.706;2023-04-29T04:22:02;18.88;;;12.07;;
40511;SDS011;26213;52.446;20.706;2023-04-29T04:24:28;20.85;;;11.73;;
40511;SDS011;26213;52.446;20.706;2023-04-29T04:26:54;21.65;;;11.50;;
40511;SDS011;26213;52.446;20.706;2023-04-29T04:29:19;22.95;;;12.15;;
40511;SDS011;26213;52.446;20.706;2023-04-29T04:31:45;17.73;;;10.20;;
40511;SDS011;26213;52.446;20.706;2023-04-29T04:34:10;23.55;;;10.90;;
40511;SDS011;26213;52.446;20.706;2023-04-29T04:36:37;17.67;;;10.98;;
40511;SDS011;26213;52.446;20.706;2023-04-29T04:39:02;22.52;;;11.18;;
40511;SDS011;26213;52.446;20.706;2023-04-29T04:41:28;21.20;;;12.23;;
40511;SDS011;26213;52.446;20.706;2023-04-29T04:43:56;28.67;;;11.77;;
40511;SDS011;26213;52.446;20.706;2023-04-29T04:46:21;18.17;;;11.02;;
40511;SDS011;26213;52.446;20.706;2023-04-29T04:48:46;16.95;;;10.95;;
40511;SDS011;26213;52.446;20.706;2023-04-29T04:51:13;18.50;;;10.15;;
40511;SDS011;26213;52.446;20.706;2023-04-29T04:53:38;21.38;;;11.13;;
40511;SDS011;26213;52.446;20.706;2023-04-29T04:56:04;18.30;;;11.20;;
40511;SDS011;26213;52.446;20.706;2023-04-29T04:58:30;16.73;;;11.07;;
40511;SDS011;26213;52.446;20.706;2023-04-29T05:00:57;15.52;;;9.20;;
40511;SDS011;26213;52.446;20.706;2023-04-29T05:03:22;14.65;;;9.63;;
40511;SDS011;26213;52.446;20.706;2023-04-29T05:05:54;16.08;;;9.85;;
40511;SDS011;26213;52.446;20.706;2023-04-29T05:08:24;17.50;;;9.55;;
40511;SDS011;26213;52.446;20.706;2023-04-29T05:10:50;14.57;;;9.88;;
40511;SDS011;26213;52.446;20.706;2023-04-29T05:13:15;14.23;;;9.98;;
40511;SDS011;26213;52.446;20.706;2023-04-29T05:15:41;16.85;;;9.55;;
40511;SDS011;26213;52.446;20.706;2023-04-29T05:18:07;18.45;;;9.02;;
40511;SDS011;26213;52.446;20.706;2023-04-29T05:20:32;14.13;;;9.10;;
40511;SDS011;26213;52.446;20.706;2023-04-29T05:22:58;19.45;;;9.55;;
40511;SDS011;26213;52.446;20.706;2023-04-29T05:25:23;17.35;;;9.57;;
40511;SDS011;26213;52.446;20.706;2023-04-29T05:27:48;18.50;;;10.07;;
40511;SDS011;26213;52.446;20.706;2023-04-29T05:30:14;13.00;;;9.10;;
40511;SDS011;26213;52.446;20.706;2023-04-29T05:32:40;14.25;;;9.05;;
40511;SDS011;26213;52.446;20.706;2023-04-29T05:35:05;16.02;;;9.52;;
40511;SDS011;26213;52.446;20.706;2023-04-29T05:37:31;14.25;;;8.20;;
40511;SDS011;26213;52.446;20.706;2023-04-29T05:39:56;12.98;;;7.90;;
40511;SDS011;26213;52.446;20.706;2023-04-29T05:42:22;12.60;;;6.78;;
40511;SDS011;26213;52.446;20.706;2023-04-29T05:44:48;10.52;;;7.45;;
40511;SDS011;26213;52.446;20.706;2023-04-29T05:47:14;10.90;;;6.35;;
40511;SDS011;26213;52.446;20.706;2023-04-29T05:49:39;12.88;;;5.78;;
40511;SDS011;26213;52.446;20.706;2023-04-29T05:52:05;9.43;;;5.40;;
40511;SDS011;26213;52.446;20.706;2023-04-29T05:54:33;9.68;;;6.47;;
40511;SDS011;26213;52.446;20.706;2023-04-29T05:56:59;10.20;;;6.18;;
40511;SDS011;26213;52.446;20.706;2023-04-29T05:59:28;16.90;;;7.07;;
40511;SDS011;26213;52.446;20.706;2023-04-29T06:01:55;9.98;;;6.38;;
40511;SDS011;26213;52.446;20.706;2023-04-29T06:04:20;13.88;;;6.22;;
40511;SDS011;26213;52.446;20.706;2023-04-29T06:06:46;8.65;;;5.35;;
40511;SDS011;26213;52.446;20.706;2023-04-29T06:09:11;9.43;;;4.78;;
40511;SDS011;26213;52.446;20.706;2023-04-29T06:11:39;12.68;;;5.63;;
40511;SDS011;26213;52.446;20.706;2023-04-29T06:14:04;12.35;;;5.82;;
40511;SDS011;26213;52.446;20.706;2023-04-29T06:16:30;9.07;;;5.22;;
40511;SDS011;26213;52.446;20.706;2023-04-29T06:18:56;11.25;;;4.88;;
40511;SDS011;26213;52.446;20.706;2023-04-29T06:21:21;9.80;;;5.20;;
40511;SDS011;26213;52.446;20.706;2023-04-29T06:23:46;12.43;;;5.68;;
40511;SDS011;26213;52.446;20.706;2023-04-29T06:26:12;16.88;;;6.15;;
40511;SDS011;26213;52.446;20.706;2023-04-29T06:28:38;7.95;;;4.50;;
40511;SDS011;26213;52.446;20.706;2023-04-29T06:31:04;8.93;;;5.60;;
40511;SDS011;26213;52.446;20.706;2023-04-29T06:33:29;16.33;;;6.38;;
40511;SDS011;26213;52.446;20.706;2023-04-29T06:35:55;11.93;;;5.07;;
40511;SDS011;26213;52.446;20.706;2023-04-29T06:38:21;8.77;;;4.90;;
40511;SDS011;26213;52.446;20.706;2023-04-29T06:40:46;11.85;;;5.63;;
40511;SDS011;26213;52.446;20.706;2023-04-29T06:43:12;13.23;;;5.70;;
40511;SDS011;26213;52.446;20.706;2023-04-29T06:45:37;12.55;;;5.18;;
40511;SDS011;26213;52.446;20.706;2023-04-29T06:48:02;14.70;;;6.05;;
40511;SDS011;26213;52.446;20.706;2023-04-29T06:50:28;12.35;;;5.72;;
40511;SDS011;26213;52.446;20.706;2023-04-29T06:52:53;8.82;;;5.18;;
40511;SDS011;26213;52.446;20.706;2023-04-29T06:55:19;8.25;;;4.93;;
40511;SDS011;26213;52.446;20.706;2023-04-29T06:57:45;12.63;;;5.03;;
40511;SDS011;26213;52.446;20.706;2023-04-29T07:00:10;10.32;;;5.53;;
40511;SDS011;26213;52.446;20.706;2023-04-29T07:02:36;8.60;;;4.60;;
40511;SDS011;26213;52.446;20.706;2023-04-29T07:05:03;11.75;;;5.15;;
40511;SDS011;26213;52.446;20.706;2023-04-29T07:07:29;7.00;;;4.40;;
40511;SDS011;26213;52.446;20.706;2023-04-29T07:09:54;9.73;;;4.85;;
40511;SDS011;26213;52.446;20.706;2023-04-29T07:12:20;10.75;;;4.82;;
40511;SDS011;26213;52.446;20.706;2023-04-29T07:14:45;10.90;;;5.05;;
40511;SDS011;26213;52.446;20.706;2023-04-29T07:17:11;10.15;;;5.38;;
40511;SDS011;26213;52.446;20.706;2023-04-29T07:19:36;10.55;;;4.50;;
40511;SDS011;26213;52.446;20.706;2023-04-29T07:22:01;13.30;;;5.13;;
40511;SDS011;26213;52.446;20.706;2023-04-29T07:24:28;6.38;;;3.83;;
40511;SDS011;26213;52.446;20.706;2023-04-29T07:26:53;14.05;;;5.50;;
40511;SDS011;26213;52.446;20.706;2023-04-29T07:29:18;9.57;;;4.68;;
40511;SDS011;26213;52.446;20.706;2023-04-29T07:31:44;7.15;;;3.95;;
40511;SDS011;26213;52.446;20.706;2023-04-29T07:34:10;9.98;;;4.80;;
40511;SDS011;26213;52.446;20.706;2023-04-29T07:36:35;8.77;;;4.40;;
40511;SDS011;26213;52.446;20.706;2023-04-29T07:39:01;9.13;;;5.18;;
40511;SDS011;26213;52.446;20.706;2023-04-29T07:41:27;11.95;;;4.72;;
40511;SDS011;26213;52.446;20.706;2023-04-29T07:43:52;8.27;;;4.78;;
40511;SDS011;26213;52.446;20.706;2023-04-29T07:46:18;12.68;;;5.10;;
40511;SDS011;26213;52.446;20.706;2023-04-29T07:48:43;13.77;;;5.18;;
40511;SDS011;26213;52.446;20.706;2023-04-29T07:51:13;9.13;;;4.53;;
40511;SDS011;26213;52.446;20.706;2023-04-29T07:53:39;9.23;;;5.05;;
40511;SDS011;26213;52.446;20.706;2023-04-29T07:56:08;8.80;;;4.80;;
40511;SDS011;26213;52.446;20.706;2023-04-29T07:58:33;12.43;;;4.65;;
40511;SDS011;26213;52.446;20.706;2023-04-29T08:01:05;9.95;;;5.13;;
40511;SDS011;26213;52.446;20.706;2023-04-29T08:03:37;10.88;;;4.60;;
40511;SDS011;26213;52.446;20.706;2023-04-29T08:06:03;10.60;;;4.53;;
40511;SDS011;26213;52.446;20.706;2023-04-29T08:08:31;7.80;;;4.22;;
40511;SDS011;26213;52.446;20.706;2023-04-29T08:10:57;10.20;;;5.22;;
40511;SDS011;26213;52.446;20.706;2023-04-29T08:13:23;11.85;;;4.50;;
40511;SDS011;26213;52.446;20.706;2023-04-29T08:15:49;8.15;;;4.32;;
40511;SDS011;26213;52.446;20.706;2023-04-29T08:18:15;10.20;;;4.55;;
40511;SDS011;26213;52.446;20.706;2023-04-29T08:20:40;8.88;;;4.28;;
40511;SDS011;26213;52.446;20.706;2023-04-29T08:23:06;11.40;;;3.92;;
40511;SDS011;26213;52.446;20.706;2023-04-29T08:25:32;8.88;;;4.30;;
40511;SDS011;26213;52.446;20.706;2023-04-29T08:27:57;10.48;;;5.50;;
40511;SDS011;26213;52.446;20.706;2023-04-29T08:30:22;9.48;;;4.38;;
40511;SDS011;26213;52.446;20.706;2023-04-29T08:32:48;13.20;;;4.95;;
40511;SDS011;26213;52.446;20.706;2023-04-29T08:35:15;10.80;;;4.30;;
40511;SDS011;26213;52.446;20.706;2023-04-29T08:37:40;7.30;;;4.10;;
40511;SDS011;26213;52.446;20.706;2023-04-29T08:40:07;9.27;;;4.20;;
40511;SDS011;26213;52.446;20.706;2023-04-29T08:42:33;7.95;;;3.38;;
40511;SDS011;26213;52.446;20.706;2023-04-29T08:47:29;13.38;;;4.57;;
40511;SDS011;26213;52.446;20.706;2023-04-29T08:49:57;9.18;;;3.83;;
40511;SDS011;26213;52.446;20.706;2023-04-29T08:52:26;7.25;;;3.60;;
40511;SDS011;26213;52.446;20.706;2023-04-29T08:54:52;8.98;;;4.53;;
40511;SDS011;26213;52.446;20.706;2023-04-29T08:57:17;8.57;;;3.00;;
40511;SDS011;26213;52.446;20.706;2023-04-29T08:59:43;12.85;;;3.33;;
40511;SDS011;26213;52.446;20.706;2023-04-29T09:02:08;7.70;;;3.53;;
40511;SDS011;26213;52.446;20.706;2023-04-29T09:07:11;7.80;;;4.25;;
40511;SDS011;26213;52.446;20.706;2023-04-29T09:09:38;12.52;;;4.15;;
40511;SDS011;26213;52.446;20.706;2023-04-29T09:12:04;10.55;;;3.58;;
40511;SDS011;26213;52.446;20.706;2023-04-29T09:14:29;10.25;;;3.75;;
40511;SDS011;26213;52.446;20.706;2023-04-29T09:16:58;7.28;;;4.13;;
40511;SDS011;26213;52.446;20.706;2023-04-29T09:19:27;10.50;;;4.28;;
40511;SDS011;26213;52.446;20.706;2023-04-29T09:21:54;9.32;;;3.92;;
40511;SDS011;26213;52.446;20.706;2023-04-29T09:24:23;6.55;;;2.92;;
40511;SDS011;26213;52.446;20.706;2023-04-29T09:26:50;5.93;;;3.47;;
40511;SDS011;26213;52.446;20.706;2023-04-29T09:29:16;9.43;;;3.72;;
40511;SDS011;26213;52.446;20.706;2023-04-29T09:31:42;7.75;;;3.92;;
40511;SDS011;26213;52.446;20.706;2023-04-29T09:34:09;6.07;;;3.90;;
40511;SDS011;26213;52.446;20.706;2023-04-29T09:36:45;7.00;;;3.00;;
40511;SDS011;26213;52.446;20.706;2023-04-29T09:39:15;7.25;;;3.55;;
40511;SDS011;26213;52.446;20.706;2023-04-29T09:44:16;8.65;;;4.15;;
40511;SDS011;26213;52.446;20.706;2023-04-29T09:46:41;14.35;;;4.05;;
40511;SDS011;26213;52.446;20.706;2023-04-29T09:49:29;7.60;;;3.13;;
40511;SDS011;26213;52.446;20.706;2023-04-29T09:51:55;17.20;;;4.30;;
40511;SDS011;26213;52.446;20.706;2023-04-29T09:54:24;13.48;;;4.65;;
40511;SDS011;26213;52.446;20.706;2023-04-29T09:56:52;13.45;;;5.03;;
40511;SDS011;26213;52.446;20.706;2023-04-29T09:59:19;13.35;;;4.75;;
40511;SDS011;26213;52.446;20.706;2023-04-29T10:01:46;13.38;;;4.32;;
40511;SDS011;26213;52.446;20.706;2023-04-29T10:04:19;14.98;;;4.68;;
40511;SDS011;26213;52.446;20.706;2023-04-29T10:06:47;11.00;;;3.53;;
40511;SDS011;26213;52.446;20.706;2023-04-29T10:09:14;9.63;;;4.13;;
40511;SDS011;26213;52.446;20.706;2023-04-29T10:11:43;8.05;;;3.67;;
40511;SDS011;26213;52.446;20.706;2023-04-29T10:14:30;7.22;;;3.78;;
40511;SDS011;26213;52.446;20.706;2023-04-29T10:19:32;7.40;;;3.78;;
40511;SDS011;26213;52.446;20.706;2023-04-29T10:21:59;12.70;;;4.47;;
40511;SDS011;26213;52.446;20.706;2023-04-29T10:24:31;13.45;;;3.92;;
40511;SDS011;26213;52.446;20.706;2023-04-29T10:27:01;14.35;;;4.10;;
40511;SDS011;26213;52.446;20.706;2023-04-29T10:29:27;6.00;;;3.22;;
40511;SDS011;26213;52.446;20.706;2023-04-29T10:31:54;12.63;;;4.17;;
40511;SDS011;26213;52.446;20.706;2023-04-29T10:34:20;6.35;;;3.33;;
40511;SDS011;26213;52.446;20.706;2023-04-29T10:36:46;8.20;;;3.70;;
40511;SDS011;26213;52.446;20.706;2023-04-29T10:39:15;9.68;;;3.58;;
40511;SDS011;26213;52.446;20.706;2023-04-29T10:41:46;9.02;;;3.63;;
40511;SDS011;26213;52.446;20.706;2023-04-29T10:44:13;5.72;;;2.85;;
40511;SDS011;26213;52.446;20.706;2023-04-29T10:46:38;11.65;;;3.88;;
40511;SDS011;26213;52.446;20.706;2023-04-29T10:49:04;7.68;;;3.78;;
40511;SDS011;26213;52.446;20.706;2023-04-29T10:51:34;10.23;;;3.75;;
40511;SDS011;26213;52.446;20.706;2023-04-29T10:56:39;6.93;;;3.80;;
40511;SDS011;26213;52.446;20.706;2023-04-29T10:59:11;12.48;;;3.75;;
40511;SDS011;26213;52.446;20.706;2023-04-29T11:01:41;14.10;;;4.18;;
40511;SDS011;26213;52.446;20.706;2023-04-29T11:04:08;9.60;;;3.88;;
40511;SDS011;26213;52.446;20.706;2023-04-29T11:11:38;9.68;;;3.40;;
40511;SDS011;26213;52.446;20.706;2023-04-29T11:14:06;6.45;;;3.70;;
40511;SDS011;26213;52.446;20.706;2023-04-29T11:16:34;12.73;;;4.15;;
40511;SDS011;26213;52.446;20.706;2023-04-29T11:19:05;10.05;;;3.60;;
40511;SDS011;26213;52.446;20.706;2023-04-29T11:21:33;7.28;;;3.30;;
40511;SDS011;26213;52.446;20.706;2023-04-29T11:24:05;7.60;;;2.83;;
40511;SDS011;26213;52.446;20.706;2023-04-29T11:26:31;10.60;;;4.00;;
40511;SDS011;26213;52.446;20.706;2023-04-29T11:28:58;6.93;;;3.38;;
40511;SDS011;26213;52.446;20.706;2023-04-29T11:31:25;9.85;;;4.03;;
40511;SDS011;26213;52.446;20.706;2023-04-29T11:33:53;9.48;;;3.50;;
40511;SDS011;26213;52.446;20.706;2023-04-29T11:36:18;9.23;;;3.22;;
40511;SDS011;26213;52.446;20.706;2023-04-29T11:38:44;8.13;;;3.45;;
40511;SDS011;26213;52.446;20.706;2023-04-29T11:41:10;16.23;;;4.25;;
40511;SDS011;26213;52.446;20.706;2023-04-29T11:43:36;5.43;;;3.20;;
40511;SDS011;26213;52.446;20.706;2023-04-29T11:46:10;7.72;;;3.40;;
40511;SDS011;26213;52.446;20.706;2023-04-29T11:48:36;6.32;;;4.32;;
40511;SDS011;26213;52.446;20.706;2023-04-29T11:51:01;14.93;;;3.75;;
40511;SDS011;26213;52.446;20.706;2023-04-29T11:53:27;11.30;;;3.92;;
40511;SDS011;26213;52.446;20.706;2023-04-29T11:55:53;8.88;;;4.40;;
40511;SDS011;26213;52.446;20.706;2023-04-29T11:58:22;9.20;;;3.67;;
40511;SDS011;26213;52.446;20.706;2023-04-29T12:00:48;13.88;;;4.63;;
40511;SDS011;26213;52.446;20.706;2023-04-29T12:03:18;8.35;;;3.95;;
40511;SDS011;26213;52.446;20.706;2023-04-29T12:05:54;14.90;;;4.68;;
40511;SDS011;26213;52.446;20.706;2023-04-29T12:08:24;13.68;;;3.88;;
40511;SDS011;26213;52.446;20.706;2023-04-29T12:10:51;9.43;;;5.22;;
40511;SDS011;26213;52.446;20.706;2023-04-29T12:13:18;11.30;;;5.20;;
40511;SDS011;26213;52.446;20.706;2023-04-29T12:15:45;6.97;;;4.38;;
40511;SDS011;26213;52.446;20.706;2023-04-29T12:18:12;7.15;;;3.63;;
40511;SDS011;26213;52.446;20.706;2023-04-29T12:20:37;8.48;;;3.70;;
40511;SDS011;26213;52.446;20.706;2023-04-29T12:23:45;10.40;;;4.53;;
40511;SDS011;26213;52.446;20.706;2023-04-29T12:25:55;8.57;;;4.40;;
40511;SDS011;26213;52.446;20.706;2023-04-29T12:28:22;8.10;;;3.55;;
40511;SDS011;26213;52.446;20.706;2023-04-29T12:30:49;5.53;;;3.80;;
40511;SDS011;26213;52.446;20.706;2023-04-29T12:33:28;8.48;;;3.92;;
40511;SDS011;26213;52.446;20.706;2023-04-29T12:35:54;12.38;;;4.22;;
40511;SDS011;26213;52.446;20.706;2023-04-29T12:38:25;5.32;;;3.13;;
40511;SDS011;26213;52.446;20.706;2023-04-29T12:40:55;9.15;;;3.53;;
40511;SDS011;26213;52.446;20.706;2023-04-29T12:43:28;9.88;;;3.75;;
40511;SDS011;26213;52.446;20.706;2023-04-29T12:46:01;8.90;;;4.03;;
40511;SDS011;26213;52.446;20.706;2023-04-29T12:48:30;10.00;;;3.47;;
40511;SDS011;26213;52.446;20.706;2023-04-29T12:50:57;7.28;;;4.28;;
40511;SDS011;26213;52.446;20.706;2023-04-29T12:53:24;19.05;;;6.00;;
40511;SDS011;26213;52.446;20.706;2023-04-29T12:55:50;10.63;;;4.27;;
40511;SDS011;26213;52.446;20.706;2023-04-29T12:58:16;11.30;;;3.88;;
40511;SDS011;26213;52.446;20.706;2023-04-29T13:00:42;7.05;;;4.10;;
40511;SDS011;26213;52.446;20.706;2023-04-29T13:03:07;8.70;;;4.00;;
40511;SDS011;26213;52.446;20.706;2023-04-29T13:05:33;8.13;;;3.70;;
40511;SDS011;26213;52.446;20.706;2023-04-29T13:07:58;7.20;;;3.40;;
40511;SDS011;26213;52.446;20.706;2023-04-29T13:10:24;9.52;;;3.50;;
40511;SDS011;26213;52.446;20.706;2023-04-29T13:12:49;10.75;;;4.00;;
40511;SDS011;26213;52.446;20.706;2023-04-29T13:15:15;8.07;;;3.78;;
40511;SDS011;26213;52.446;20.706;2023-04-29T13:17:40;6.63;;;3.40;;
40511;SDS011;26213;52.446;20.706;2023-04-29T13:20:06;7.75;;;3.38;;
40511;SDS011;26213;52.446;20.706;2023-04-29T13:22:32;8.07;;;4.60;;
40511;SDS011;26213;52.446;20.706;2023-04-29T13:24:57;9.65;;;3.92;;
40511;SDS011;26213;52.446;20.706;2023-04-29T13:27:23;9.27;;;3.85;;
40511;SDS011;26213;52.446;20.706;2023-04-29T13:29:49;9.07;;;3.67;;
40511;SDS011;26213;52.446;20.706;2023-04-29T13:32:14;7.43;;;4.10;;
40511;SDS011;26213;52.446;20.706;2023-04-29T13:34:40;8.55;;;4.13;;
40511;SDS011;26213;52.446;20.706;2023-04-29T13:37:07;7.40;;;3.70;;
40511;SDS011;26213;52.446;20.706;2023-04-29T13:39:33;5.97;;;3.80;;
40511;SDS011;26213;52.446;20.706;2023-04-29T13:42:00;7.47;;;4.07;;
40511;SDS011;26213;52.446;20.706;2023-04-29T13:44:25;7.70;;;3.70;;
40511;SDS011;26213;52.446;20.706;2023-04-29T13:46:51;6.20;;;3.40;;
40511;SDS011;26213;52.446;20.706;2023-04-29T13:49:16;11.73;;;4.57;;
40511;SDS011;26213;52.446;20.706;2023-04-29T13:51:41;7.72;;;3.83;;
40511;SDS011;26213;52.446;20.706;2023-04-29T13:54:07;7.90;;;3.38;;
40511;SDS011;26213;52.446;20.706;2023-04-29T13:56:32;9.32;;;3.95;;
40511;SDS011;26213;52.446;20.706;2023-04-29T13:58:58;6.72;;;3.70;;
40511;SDS011;26213;52.446;20.706;2023-04-29T14:01:23;18.33;;;4.03;;
40511;SDS011;26213;52.446;20.706;2023-04-29T14:03:49;8.07;;;3.50;;
40511;SDS011;26213;52.446;20.706;2023-04-29T14:06:15;6.72;;;3.60;;
40511;SDS011;26213;52.446;20.706;2023-04-29T14:08:40;6.95;;;3.63;;
40511;SDS011;26213;52.446;20.706;2023-04-29T14:11:05;8.93;;;3.92;;
40511;SDS011;26213;52.446;20.706;2023-04-29T14:13:31;11.52;;;4.60;;
40511;SDS011;26213;52.446;20.706;2023-04-29T14:15:56;8.43;;;4.82;;
40511;SDS011;26213;52.446;20.706;2023-04-29T14:18:23;12.30;;;5.72;;
40511;SDS011;26213;52.446;20.706;2023-04-29T14:20:49;11.02;;;5.53;;
40511;SDS011;26213;52.446;20.706;2023-04-29T14:23:14;10.38;;;4.75;;
40511;SDS011;26213;52.446;20.706;2023-04-29T14:25:39;7.88;;;4.47;;
40511;SDS011;26213;52.446;20.706;2023-04-29T14:28:05;10.20;;;5.35;;
40511;SDS011;26213;52.446;20.706;2023-04-29T14:30:30;56.03;;;17.50;;
40511;SDS011;26213;52.446;20.706;2023-04-29T14:32:56;8.75;;;5.75;;
40511;SDS011;26213;52.446;20.706;2023-04-29T14:35:21;10.48;;;4.65;;
40511;SDS011;26213;52.446;20.706;2023-04-29T14:37:47;7.07;;;4.65;;
40511;SDS011;26213;52.446;20.706;2023-04-29T14:40:12;15.88;;;6.35;;
40511;SDS011;26213;52.446;20.706;2023-04-29T14:42:37;17.67;;;5.60;;